createdAt,value
2023-02-28T00:02:11.634Z,1.70
2023-02-28T00:05:18.149Z,1.91
2023-02-28T00:08:22.503Z,1.93
2023-02-28T00:11:26.985Z,2.07
2023-02-28T00:14:32.822Z,2.34
2023-02-28T00:17:37.720Z,2.63
2023-02-28T00:20:42.222Z,2.66
2023-02-28T00:23:46.606Z,2.43
2023-02-28T00:26:50.877Z,2.55
2023-02-28T00:29:56.040Z,2.64
2023-02-28T00:33:01.182Z,2.86
2023-02-28T00:36:08.236Z,2.65
2023-02-28T00:39:14.319Z,2.61
2023-02-28T00:42:18.609Z,2.67
2023-02-28T00:45:25.396Z,2.48
2023-02-28T00:48:30.297Z,3.07
2023-02-28T00:51:34.628Z,2.97
2023-02-28T00:54:38.875Z,2.80
2023-02-28T00:57:45.578Z,2.94
2023-02-28T01:00:50.706Z,3.06
2023-02-28T01:03:55.002Z,2.56
2023-02-28T01:06:58.908Z,2.52
2023-02-28T01:10:03.672Z,2.87
2023-02-28T01:13:08.008Z,2.91
2023-02-28T01:16:15.340Z,2.83
2023-02-28T01:19:19.639Z,2.82
2023-02-28T01:22:23.886Z,2.81
2023-02-28T01:25:28.191Z,2.70
2023-02-28T01:28:32.126Z,2.62
2023-02-28T01:31:38.543Z,2.74
2023-02-28T01:34:45.692Z,2.92
2023-02-28T01:37:49.937Z,2.94
2023-02-28T01:40:54.168Z,2.89
2023-02-28T01:44:07.324Z,2.86
2023-02-28T01:47:11.269Z,3.07
2023-02-28T01:50:20.414Z,3.07
2023-02-28T01:53:32.233Z,3.37
2023-02-28T01:56:38.603Z,3.42
2023-02-28T01:59:52.813Z,3.52
2023-02-28T02:03:01.681Z,3.78
2023-02-28T02:06:05.775Z,4.00
2023-02-28T02:09:09.971Z,4.08
2023-02-28T02:12:32.632Z,3.75
2023-02-28T02:15:46.337Z,3.60
2023-02-28T02:19:00.661Z,3.90
2023-02-28T02:22:28.526Z,3.97
2023-02-28T02:25:51.740Z,4.30
2023-02-28T02:29:06.076Z,4.03
2023-02-28T02:33:01.300Z,3.72
2023-02-28T02:36:32.637Z,3.07
2023-02-28T02:39:55.250Z,3.33
2023-02-28T02:43:09.144Z,3.64
2023-02-28T02:46:33.130Z,3.25
2023-02-28T02:49:40.482Z,3.26
2023-02-28T02:52:50.564Z,3.64
2023-02-28T02:55:57.354Z,3.99
2023-02-28T02:59:08.198Z,4.17
2023-02-28T03:02:16.414Z,4.27
2023-02-28T03:05:28.704Z,4.39
2023-02-28T03:08:37.722Z,4.24
2023-02-28T03:11:44.070Z,4.37
2023-02-28T03:15:21.953Z,4.51
2023-02-28T03:19:00.074Z,4.52
2023-02-28T03:22:13.785Z,4.46
2023-02-28T03:25:54.622Z,4.40
2023-02-28T03:29:14.762Z,4.13
2023-02-28T03:32:41.411Z,3.87
2023-02-28T03:35:55.166Z,3.73
2023-02-28T03:39:09.253Z,3.75
2023-02-28T03:42:22.637Z,4.00
2023-02-28T03:45:32.027Z,4.14
2023-02-28T03:49:02.598Z,3.94
2023-02-28T03:52:09.570Z,3.77
2023-02-28T03:55:16.916Z,3.81
2023-02-28T03:58:41.179Z,3.51
2023-02-28T04:01:48.574Z,2.86
2023-02-28T04:04:52.956Z,2.88
2023-02-28T04:08:06.588Z,2.80
2023-02-28T04:11:32.643Z,2.63
2023-02-28T04:14:37.103Z,2.68
2023-02-28T04:17:40.997Z,2.37
2023-02-28T04:20:45.094Z,2.28
2023-02-28T04:23:48.992Z,2.19
2023-02-28T04:26:55.614Z,2.08
2023-02-28T04:29:59.881Z,2.00
2023-02-28T04:33:03.858Z,1.84
2023-02-28T04:36:11.122Z,1.90
2023-02-28T04:39:15.763Z,2.05
2023-02-28T04:42:20.034Z,2.26
2023-02-28T04:45:24.912Z,2.07
2023-02-28T04:48:34.701Z,2.03
2023-02-28T04:51:39.650Z,1.78
2023-02-28T04:54:43.720Z,2.08
2023-02-28T04:57:47.640Z,2.38
2023-02-28T05:00:55.412Z,2.52
2023-02-28T05:04:02.223Z,2.45
2023-02-28T05:07:06.514Z,2.57
2023-02-28T05:10:11.784Z,2.71
2023-02-28T05:13:16.385Z,2.73
2023-02-28T05:16:21.889Z,2.98
2023-02-28T05:19:26.477Z,3.21
2023-02-28T05:22:30.785Z,3.47
2023-02-28T05:25:35.483Z,3.62
2023-02-28T05:28:40.055Z,3.66
2023-02-28T05:31:44.385Z,3.53
2023-02-28T05:34:48.790Z,3.55
2023-02-28T05:37:53.546Z,3.57
2023-02-28T05:40:58.129Z,3.50
2023-02-28T05:44:02.502Z,3.11
2023-02-28T05:47:06.364Z,3.23
2023-02-28T05:50:12.386Z,3.28
2023-02-28T05:53:16.155Z,3.45
2023-02-28T05:56:20.451Z,3.59
2023-02-28T05:59:24.759Z,3.64
2023-02-28T06:02:30.117Z,3.42
2023-02-28T06:05:34.928Z,3.44
2023-02-28T06:08:39.794Z,3.31
2023-02-28T06:11:44.584Z,2.95
2023-02-28T06:14:48.873Z,2.96
2023-02-28T06:17:54.149Z,2.98
2023-02-28T06:20:58.613Z,2.82
2023-02-28T06:24:03.354Z,2.66
2023-02-28T06:27:07.746Z,2.37
2023-02-28T06:30:13.604Z,2.68
2023-02-28T06:33:18.486Z,3.02
2023-02-28T06:36:22.835Z,2.97
2023-02-28T06:39:27.128Z,2.50
2023-02-28T06:42:32.532Z,2.39
2023-02-28T06:45:37.720Z,2.22
2023-02-28T06:48:42.422Z,2.31
2023-02-28T06:51:47.028Z,2.67
2023-02-28T06:55:01.532Z,2.50
2023-02-28T06:58:16.277Z,2.44
2023-02-28T07:01:21.173Z,2.19
2023-02-28T07:04:25.722Z,2.19
2023-02-28T07:07:30.155Z,2.51
2023-02-28T07:10:35.609Z,2.53
2023-02-28T07:13:39.470Z,2.55
2023-02-28T07:16:43.420Z,2.38
2023-02-28T07:19:48.103Z,2.03
2023-02-28T07:22:58.056Z,2.05
2023-02-28T07:26:02.723Z,1.67
2023-02-28T07:29:07.004Z,1.73
2023-02-28T07:32:11.412Z,1.60
2023-02-28T07:35:17.159Z,1.64
2023-02-28T07:38:21.443Z,1.23
2023-02-28T07:41:27.664Z,1.11
2023-02-28T07:44:31.997Z,1.22
2023-02-28T07:47:36.529Z,1.19
2023-02-28T07:50:40.441Z,1.23
2023-02-28T07:53:44.461Z,1.12
2023-02-28T07:56:50.171Z,0.93
2023-02-28T07:59:55.148Z,0.77
2023-02-28T08:02:59.878Z,0.52
2023-02-28T08:06:08.570Z,0.56
2023-02-28T08:09:13.390Z,0.73
2023-02-28T08:12:18.040Z,0.73
2023-02-28T08:15:22.278Z,0.75
2023-02-28T08:18:26.826Z,0.78
2023-02-28T08:21:31.528Z,0.85
2023-02-28T08:24:36.410Z,0.85
2023-02-28T08:27:40.601Z,0.50
2023-02-28T08:30:44.585Z,0.87
2023-02-28T08:33:51.655Z,0.65
2023-02-28T08:36:55.686Z,0.50
2023-02-28T08:39:59.426Z,0.55
2023-02-28T08:43:03.742Z,0.56
2023-02-28T08:46:09.260Z,0.49
2023-02-28T08:49:13.650Z,0.33
2023-02-28T08:52:18.842Z,0.10
2023-02-28T08:55:23.456Z,0.03
2023-02-28T08:58:28.500Z,0.30
2023-02-28T09:01:34.693Z,-0.27
2023-02-28T09:04:39.082Z,0.08
2023-02-28T09:07:44.155Z,0.32
2023-02-28T09:10:48.986Z,-0.31
2023-02-28T09:13:53.264Z,-0.52
2023-02-28T09:16:57.691Z,-0.31
2023-02-28T09:20:02.139Z,-0.07
2023-02-28T09:23:06.872Z,-0.47
2023-02-28T09:26:16.753Z,-0.54
2023-02-28T09:29:22.234Z,-0.60
2023-02-28T09:32:26.470Z,-0.83
2023-02-28T09:35:32.483Z,-0.79
2023-02-28T09:38:37.294Z,-0.49
2023-02-28T09:41:52.413Z,-0.36
2023-02-28T09:44:58.784Z,-0.57
2023-02-28T09:48:09.392Z,-0.66
2023-02-28T09:51:50.776Z,-0.50
2023-02-28T09:54:54.781Z,-0.15
2023-02-28T09:58:01.648Z,-0.23
2023-02-28T10:01:20.084Z,-0.13
2023-02-28T10:04:39.523Z,-0.08
2023-02-28T10:07:56.963Z,-0.08
2023-02-28T10:11:06.204Z,-0.35
2023-02-28T10:14:23.608Z,-0.27
2023-02-28T10:17:54.900Z,-0.48
2023-02-28T10:21:07.479Z,-0.21
2023-02-28T10:24:32.278Z,-0.31
2023-02-28T10:27:37.163Z,-0.45
2023-02-28T10:30:48.781Z,-0.44
2023-02-28T10:33:53.161Z,-0.41
2023-02-28T10:36:58.300Z,-0.44
2023-02-28T10:40:02.884Z,-0.68
2023-02-28T10:43:20.933Z,-0.55
2023-02-28T10:46:29.772Z,-0.51
2023-02-28T10:49:36.679Z,-0.51
2023-02-28T10:52:44.536Z,-0.56
2023-02-28T10:56:10.580Z,-0.76
2023-02-28T10:59:29.412Z,-0.95
2023-02-28T11:02:44.710Z,-0.86
2023-02-28T11:05:50.690Z,-1.25
2023-02-28T11:09:02.111Z,-1.00
2023-02-28T11:12:09.540Z,-0.85
2023-02-28T11:16:12.380Z,-1.07
2023-02-28T11:19:42.127Z,-0.95
2023-02-28T11:22:48.162Z,-1.02
2023-02-28T11:25:58.859Z,-0.94
2023-02-28T11:29:23.726Z,-0.76
2023-02-28T11:32:30.717Z,-0.65
2023-02-28T11:35:38.796Z,-0.68
2023-02-28T11:46:29.101Z,-0.81
2023-02-28T11:49:52.208Z,-0.86
2023-02-28T11:53:03.240Z,-0.91
2023-02-28T11:56:39.009Z,-0.84
2023-02-28T12:00:02.979Z,-0.76
2023-02-28T12:03:29.795Z,-0.73
2023-02-28T12:07:11.182Z,-0.83
2023-02-28T12:10:26.509Z,-0.68
2023-02-28T12:13:50.551Z,-0.90
2023-02-28T12:17:20.820Z,-0.42
2023-02-28T12:20:31.731Z,-0.66
2023-02-28T12:24:07.205Z,-0.26
2023-02-28T12:27:16.916Z,-0.25
2023-02-28T12:30:52.274Z,-0.18
2023-02-28T12:34:04.117Z,-0.46
2023-02-28T12:37:18.691Z,-0.85
2023-02-28T12:40:31.305Z,-0.56
2023-02-28T12:43:43.060Z,-0.27
2023-02-28T12:46:54.908Z,-0.74
2023-02-28T12:50:04.280Z,-0.92
2023-02-28T12:53:24.945Z,-0.83
2023-02-28T12:56:39.432Z,-0.87
2023-02-28T13:00:01.947Z,-1.18
2023-02-28T13:03:35.455Z,-1.53
2023-02-28T13:07:04.048Z,-1.66
2023-02-28T13:10:09.849Z,-1.55
2023-02-28T13:13:18.899Z,-1.83
2023-02-28T13:16:23.573Z,-1.72
2023-02-28T13:19:35.601Z,-1.77
2023-02-28T13:22:48.993Z,-1.78
2023-02-28T13:25:55.432Z,-1.78
2023-02-28T13:29:06.550Z,-2.08
2023-02-28T13:32:11.183Z,-2.07
2023-02-28T13:35:17.088Z,-2.07
2023-02-28T13:38:27.206Z,-2.51
2023-02-28T13:41:31.360Z,-2.43
2023-02-28T13:45:04.280Z,-2.68
2023-02-28T13:48:26.826Z,-2.81
2023-02-28T13:51:51.263Z,-2.83
2023-02-28T13:55:37.895Z,-3.08
2023-02-28T13:58:52.337Z,-3.09
2023-02-28T14:02:02.438Z,-3.16
2023-02-28T14:05:21.550Z,-3.13
2023-02-28T14:08:25.953Z,-3.06
2023-02-28T14:11:34.765Z,-3.12
2023-02-28T14:14:39.007Z,-3.11
2023-02-28T14:17:43.597Z,-3.38
2023-02-28T14:20:51.210Z,-3.37
2023-02-28T14:24:13.668Z,-3.34
2023-02-28T14:27:39.287Z,-3.26
2023-02-28T14:30:46.594Z,-3.42
2023-02-28T14:34:21.463Z,-3.46
2023-02-28T14:37:33.139Z,-3.37
2023-02-28T14:40:40.613Z,-3.41
2023-02-28T14:43:57.497Z,-3.70
2023-02-28T14:47:10.695Z,-4.10
2023-02-28T14:50:29.346Z,-3.99
2023-02-28T14:53:39.406Z,-3.97
2023-02-28T14:56:43.930Z,-3.97
2023-02-28T14:59:48.249Z,-4.27
2023-02-28T15:02:53.508Z,-4.02
2023-02-28T15:06:00.246Z,-4.12
2023-02-28T15:09:19.304Z,-4.19
2023-02-28T15:16:01.875Z,-4.07
2023-02-28T15:19:18.746Z,-4.36
2023-02-28T15:22:37.450Z,-4.53
2023-02-28T15:25:43.677Z,-4.31
2023-02-28T15:28:47.828Z,-4.00
2023-02-28T15:31:58.416Z,-3.89
2023-02-28T15:35:22.886Z,-3.94
2023-02-28T15:38:29.236Z,-3.72
2023-02-28T15:41:43.057Z,-3.75
2023-02-28T15:44:47.987Z,-3.91
2023-02-28T15:47:53.623Z,-4.31
2023-02-28T15:51:19.114Z,-4.53
2023-02-28T15:54:36.679Z,-4.91
2023-02-28T15:57:42.523Z,-4.89
2023-02-28T16:00:51.015Z,-5.04
2023-02-28T16:03:58.553Z,-4.81
2023-02-28T16:07:05.571Z,-5.55
2023-02-28T16:10:12.146Z,-5.34
2023-02-28T16:13:17.774Z,-5.46
2023-02-28T16:16:24.141Z,-5.58
2023-02-28T16:19:28.467Z,-6.07
2023-02-28T16:22:32.673Z,-5.90
2023-02-28T16:25:40.665Z,-5.91
2023-02-28T16:28:46.026Z,-5.99
2023-02-28T16:31:50.541Z,-5.92
2023-02-28T16:34:54.946Z,-6.06
2023-02-28T16:37:58.855Z,-6.08
2023-02-28T16:41:03.341Z,-6.14
2023-02-28T16:44:15.555Z,-6.33
2023-02-28T16:47:20.293Z,-6.29
2023-02-28T16:50:27.752Z,-6.04
2023-02-28T16:53:31.654Z,-6.09
2023-02-28T16:56:37.118Z,-6.16
2023-02-28T16:59:42.044Z,-6.16
2023-02-28T17:02:46.770Z,-6.35
2023-02-28T17:05:51.200Z,-6.47
2023-02-28T17:08:56.661Z,-6.64
2023-02-28T17:12:01.337Z,-6.78
2023-02-28T17:15:06.118Z,-6.93
2023-02-28T17:18:22.985Z,-7.06
2023-02-28T17:21:27.513Z,-7.17
2023-02-28T17:24:31.865Z,-7.44
2023-02-28T17:27:36.355Z,-7.30
2023-02-28T17:30:42.491Z,-7.44
2023-02-28T17:33:47.002Z,-7.30
2023-02-28T17:36:54.028Z,-7.74
2023-02-28T17:39:58.457Z,-7.47
2023-02-28T17:43:02.831Z,-7.60
2023-02-28T17:46:09.230Z,-7.66
2023-02-28T17:49:13.698Z,-7.37
2023-02-28T17:52:18.136Z,-7.56
2023-02-28T17:55:22.547Z,-7.68
2023-02-28T17:58:27.040Z,-7.64
2023-02-28T18:01:31.494Z,-7.45
2023-02-28T18:04:36.085Z,-7.57
2023-02-28T18:07:41.230Z,-7.35
2023-02-28T18:10:45.788Z,-7.41
2023-02-28T18:13:52.817Z,-7.71
2023-02-28T18:16:58.304Z,-7.84
2023-02-28T18:20:02.874Z,-7.93
2023-02-28T18:23:07.089Z,-8.08
2023-02-28T18:26:11.761Z,-8.04
2023-02-28T18:29:23.233Z,-8.19
2023-02-28T18:32:28.935Z,-7.80
2023-02-28T18:35:36.487Z,-7.78
2023-02-28T18:38:41.434Z,-8.19
2023-02-28T18:41:45.422Z,-8.35
2023-02-28T18:44:49.157Z,-8.65
2023-02-28T18:47:53.378Z,-8.76
2023-02-28T18:50:58.497Z,-8.67
2023-02-28T18:54:02.891Z,-8.66
2023-02-28T18:57:07.333Z,-8.62
2023-02-28T19:00:13.901Z,-8.45
2023-02-28T19:03:18.293Z,-8.45
2023-02-28T19:06:22.991Z,-8.62
2023-02-28T19:09:27.348Z,-8.40
2023-02-28T19:12:36.212Z,-8.39
2023-02-28T19:15:40.779Z,-8.54
2023-02-28T19:18:45.259Z,-8.94
2023-02-28T19:21:48.959Z,-8.81
2023-02-28T19:24:53.882Z,-8.93
2023-02-28T19:27:58.614Z,-8.87
2023-02-28T19:31:02.993Z,-8.87
2023-02-28T19:34:07.326Z,-8.87
2023-02-28T19:37:11.881Z,-8.77
2023-02-28T19:40:16.514Z,-8.93
2023-02-28T19:43:20.700Z,-8.88
2023-02-28T19:46:24.964Z,-8.98
2023-02-28T19:49:29.266Z,-8.74
2023-02-28T19:52:33.971Z,-8.82
2023-02-28T19:55:39.335Z,-9.08
2023-02-28T19:58:43.774Z,-9.42
2023-02-28T20:01:48.388Z,-9.19
2023-02-28T20:04:52.895Z,-9.30
2023-02-28T20:07:57.599Z,-9.24
2023-02-28T20:11:16.495Z,-9.48
2023-02-28T20:14:21.042Z,-9.32
2023-02-28T20:17:25.853Z,-9.33
2023-02-28T20:20:30.152Z,-9.24
2023-02-28T20:23:34.458Z,-9.15
2023-02-28T20:26:39.351Z,-9.03
2023-02-28T20:29:43.548Z,-9.12
2023-02-28T20:32:47.498Z,-9.18
2023-02-28T20:35:53.572Z,-9.13
2023-02-28T20:39:00.168Z,-9.20
2023-02-28T20:42:04.815Z,-9.61
2023-02-28T20:45:09.807Z,-9.71
2023-02-28T20:48:14.164Z,-9.60
2023-02-28T20:51:18.416Z,-9.72
2023-02-28T20:54:23.007Z,-10.00
2023-02-28T20:57:30.955Z,-10.13
2023-02-28T21:00:35.524Z,-10.19
2023-02-28T21:03:41.275Z,-9.99
2023-02-28T21:06:47.052Z,-10.00
2023-02-28T21:09:51.290Z,-10.23
2023-02-28T21:12:58.451Z,-10.71
2023-02-28T21:16:11.034Z,-10.54
2023-02-28T21:19:15.703Z,-10.84
2023-02-28T21:22:20.572Z,-10.96
2023-02-28T21:25:24.770Z,-11.16
2023-02-28T21:28:29.174Z,-11.12
2023-02-28T21:31:35.033Z,-11.02
2023-02-28T21:34:39.670Z,-10.88
2023-02-28T21:37:44.958Z,-11.16
2023-02-28T21:40:52.140Z,-11.14
2023-02-28T21:43:57.787Z,-11.18
2023-02-28T21:47:03.507Z,-11.11
2023-02-28T21:50:08.469Z,-11.37
2023-02-28T21:53:13.022Z,-11.38
2023-02-28T21:56:28.446Z,-10.80
2023-02-28T21:59:32.925Z,-10.96
2023-02-28T22:02:37.942Z,-11.03
2023-02-28T22:05:42.004Z,-11.06
2023-02-28T22:08:49.012Z,-11.31
2023-02-28T22:11:53.816Z,-11.10
2023-02-28T22:14:57.821Z,-10.91
2023-02-28T22:18:01.829Z,-10.99
2023-02-28T22:21:07.270Z,-10.71
2023-02-28T22:24:12.427Z,-10.45
2023-02-28T22:27:16.793Z,-10.36
2023-02-28T22:30:21.183Z,-10.57
2023-02-28T22:33:25.556Z,-10.70
2023-02-28T22:36:31.199Z,-10.49
2023-02-28T22:39:35.645Z,-10.28
2023-02-28T22:42:40.278Z,-10.19
2023-02-28T22:45:44.621Z,-9.94
2023-02-28T22:48:49.745Z,-10.05
2023-02-28T22:51:53.733Z,-9.44
2023-02-28T22:54:57.429Z,-8.26
2023-02-28T22:58:01.688Z,-6.87
2023-02-28T23:01:15.913Z,-5.23
2023-02-28T23:04:20.354Z,-5.84
2023-02-28T23:07:25.034Z,-4.17
2023-02-28T23:10:29.486Z,-2.48
2023-02-28T23:13:33.992Z,-1.84
2023-02-28T23:16:48.590Z,-1.81
2023-02-28T23:19:53.001Z,-1.12
2023-02-28T23:22:57.285Z,-2.12
2023-02-28T23:26:01.844Z,-2.92
2023-02-28T23:29:07.119Z,-2.57
2023-02-28T23:32:11.579Z,-1.28
2023-02-28T23:35:16.752Z,-0.66
2023-02-28T23:38:21.309Z,-0.65
2023-02-28T23:41:26.481Z,-1.14
2023-02-28T23:44:30.907Z,-1.26
2023-02-28T23:47:35.371Z,-1.82
2023-02-28T23:50:39.940Z,-2.31
2023-02-28T23:53:48.643Z,-3.03
2023-02-28T23:56:52.661Z,-2.63
2023-02-28T23:59:57.693Z,-3.51
